ePrivacy and GPDR Cookie Consent by Cookie Consent
EmailTwitter


Observations de surface / France / LFMP (07747)

Régions: Québec | Canada | États-Unis | Europe | France | UK | Ailleurs
Station
Affichage
Infos & localisation pour LFMP (07747) | Aide pour décoder les METARs

Observations prises le 2022-01-20 à 11H00 UTC à PERPIGNAN/RIVESA, FR (LFMP)

Température: 13.0 Celsius

Point de rosée: 4.0 Celsius

Humidité relative: 54%

Facteur vent 11.

Vents: Nord-ouest à 28 km/h ou 15 noeuds.

Pression au niveau moyen de la mer: 102.70 kilopascals.

Observation METAR:

LFMP 201100Z AUTO 31015KT CAVOK 13/04 Q1027 BECMG 31020G30KT=